createdAt,value
2023-02-18T00:01:09.415Z,4.50
2023-02-18T00:03:57.623Z,4.47
2023-02-18T00:06:44.984Z,4.47
2023-02-18T00:09:32.351Z,4.27
2023-02-18T00:12:19.695Z,3.80
2023-02-18T00:15:07.192Z,4.47
2023-02-18T00:17:54.597Z,4.63
2023-02-18T00:20:41.961Z,5.00
2023-02-18T00:23:29.346Z,4.03
2023-02-18T00:26:17.579Z,4.67
2023-02-18T00:29:05.091Z,5.03
2023-02-18T00:31:52.632Z,5.03
2023-02-18T00:34:40.160Z,4.27
2023-02-18T00:37:27.500Z,4.70
2023-02-18T00:40:14.808Z,4.17
2023-02-18T00:43:02.167Z,3.73
2023-02-18T00:45:49.623Z,5.13
2023-02-18T00:48:37.443Z,5.00
2023-02-18T00:51:25.440Z,4.90
2023-02-18T00:54:12.789Z,4.37
2023-02-18T00:57:00.172Z,5.13
2023-02-18T00:59:47.530Z,4.37
2023-02-18T01:02:35.188Z,3.93
2023-02-18T01:05:22.564Z,4.47
2023-02-18T01:08:10.669Z,3.53
2023-02-18T01:10:58.946Z,3.90
2023-02-18T01:13:46.316Z,3.43
2023-02-18T01:16:33.730Z,3.53
2023-02-18T01:19:21.107Z,5.67
2023-02-18T01:22:08.485Z,4.17
2023-02-18T01:24:55.826Z,4.37
2023-02-18T01:27:43.299Z,4.63
2023-02-18T01:30:30.811Z,3.50
2023-02-18T01:33:18.323Z,4.33
2023-02-18T01:36:06.665Z,4.27
2023-02-18T01:38:54.352Z,4.53
2023-02-18T01:41:41.674Z,4.00
2023-02-18T01:44:29.874Z,4.37
2023-02-18T01:47:17.760Z,4.00
2023-02-18T01:50:05.455Z,3.90
2023-02-18T01:52:52.840Z,5.27
2023-02-18T01:55:40.193Z,3.60
2023-02-18T01:58:27.654Z,4.97
2023-02-18T02:01:15.223Z,4.60
2023-02-18T02:04:03.171Z,4.93
2023-02-18T02:06:50.513Z,4.57
2023-02-18T02:09:39.257Z,4.50
2023-02-18T02:12:32.384Z,3.93
2023-02-18T02:15:38.396Z,3.97
2023-02-18T02:18:39.774Z,4.33
2023-02-18T02:21:36.038Z,5.20
2023-02-18T02:24:44.608Z,3.87
2023-02-18T02:27:42.554Z,3.87
2023-02-18T02:30:32.770Z,3.73
2023-02-18T02:33:26.402Z,3.53
2023-02-18T02:36:16.581Z,3.83
2023-02-18T02:39:10.714Z,4.30
2023-02-18T02:42:10.379Z,4.73
2023-02-18T02:45:09.903Z,3.73
2023-02-18T02:48:06.592Z,4.07
2023-02-18T02:50:59.098Z,4.27
2023-02-18T02:53:46.484Z,4.20
2023-02-18T02:56:33.892Z,3.97
2023-02-18T02:59:22.860Z,3.57
2023-02-18T03:02:28.844Z,3.80
2023-02-18T03:05:22.242Z,3.67
2023-02-18T03:08:15.313Z,3.57
2023-02-18T03:11:02.637Z,3.67
2023-02-18T03:14:05.304Z,4.23
2023-02-18T03:16:56.714Z,3.87
2023-02-18T03:19:47.947Z,4.90
2023-02-18T03:22:38.619Z,3.93
2023-02-18T03:25:26.499Z,3.37
2023-02-18T03:28:18.745Z,4.30
2023-02-18T03:31:10.634Z,4.23
2023-02-18T03:34:02.019Z,4.53
2023-02-18T03:36:49.557Z,3.53
2023-02-18T03:39:37.843Z,3.87
2023-02-18T03:42:28.987Z,4.90
2023-02-18T03:45:16.357Z,4.30
2023-02-18T03:48:03.928Z,3.50
2023-02-18T03:50:51.299Z,3.87
2023-02-18T03:53:38.685Z,4.77
2023-02-18T03:56:26.042Z,4.33
2023-02-18T03:59:13.595Z,3.13
2023-02-18T04:02:00.968Z,3.70
2023-02-18T04:04:48.332Z,3.10
2023-02-18T04:07:35.874Z,3.23
2023-02-18T04:10:23.389Z,3.83
2023-02-18T04:13:11.058Z,3.57
2023-02-18T04:15:58.509Z,3.57
2023-02-18T04:18:45.859Z,2.30
2023-02-18T04:21:33.691Z,3.73
2023-02-18T04:24:21.097Z,4.13
2023-02-18T04:27:08.470Z,3.07
2023-02-18T04:29:55.991Z,2.43
2023-02-18T04:32:43.330Z,3.60
2023-02-18T04:35:30.677Z,2.20
2023-02-18T04:38:18.089Z,2.40
2023-02-18T04:41:05.579Z,2.73
2023-02-18T04:43:52.984Z,2.60
2023-02-18T04:46:40.357Z,2.37
2023-02-18T04:49:27.769Z,2.73
2023-02-18T04:52:15.103Z,2.10
2023-02-18T04:55:02.543Z,3.37
2023-02-18T04:57:49.878Z,1.80
2023-02-18T05:00:37.253Z,2.73
2023-02-18T05:03:24.890Z,2.30
2023-02-18T05:06:12.478Z,2.23
2023-02-18T05:08:59.927Z,2.00
2023-02-18T05:11:47.716Z,2.13
2023-02-18T05:14:35.057Z,1.97
2023-02-18T05:17:22.457Z,2.37
2023-02-18T05:20:10.165Z,2.17
2023-02-18T05:22:57.509Z,2.63
2023-02-18T05:25:51.172Z,2.13
2023-02-18T05:28:42.031Z,3.63
2023-02-18T05:31:33.060Z,2.43
2023-02-18T05:34:20.516Z,2.30
2023-02-18T05:37:20.506Z,2.63
2023-02-18T05:40:11.992Z,2.40
2023-02-18T05:43:15.235Z,4.40
2023-02-18T05:46:22.044Z,2.47
2023-02-18T05:49:12.337Z,2.80
2023-02-18T05:52:30.206Z,3.17
2023-02-18T05:55:21.052Z,2.33
2023-02-18T05:58:15.196Z,2.10
2023-02-18T06:01:14.589Z,2.87
2023-02-18T06:04:06.821Z,2.50
2023-02-18T06:06:59.724Z,2.00
2023-02-18T06:12:54.170Z,2.30
2023-02-18T06:15:44.408Z,2.40
2023-02-18T06:18:55.106Z,2.60
2023-02-18T06:22:01.028Z,2.93
2023-02-18T06:24:51.792Z,2.90
2023-02-18T06:27:43.916Z,2.53
2023-02-18T06:30:31.400Z,2.23
2023-02-18T06:33:18.792Z,2.70
2023-02-18T06:36:08.214Z,3.20
2023-02-18T06:39:14.748Z,2.60
2023-02-18T06:45:13.470Z,2.43
2023-02-18T06:48:04.066Z,2.47
2023-02-18T06:51:01.529Z,1.97
2023-02-18T06:53:56.377Z,2.60
2023-02-18T06:56:54.721Z,2.53
2023-02-18T07:00:02.870Z,1.83
2023-02-18T07:02:57.197Z,2.40
2023-02-18T07:06:00.381Z,2.40
2023-02-18T07:08:57.530Z,3.33
2023-02-18T07:12:00.764Z,2.23
2023-02-18T07:15:28.318Z,2.33
2023-02-18T07:18:32.759Z,2.03
2023-02-18T07:21:28.493Z,1.97
2023-02-18T07:24:22.437Z,2.80
2023-02-18T07:27:12.817Z,2.83
2023-02-18T07:30:05.082Z,2.37
2023-02-18T07:33:08.170Z,2.40
2023-02-18T07:36:21.826Z,2.20
2023-02-18T07:39:13.062Z,1.97
2023-02-18T07:42:09.601Z,2.07
2023-02-18T07:45:15.528Z,2.73
2023-02-18T07:51:18.161Z,1.77
2023-02-18T07:54:14.736Z,2.00
2023-02-18T07:57:11.533Z,2.30
2023-02-18T08:00:22.576Z,1.73
2023-02-18T08:03:24.939Z,2.17
2023-02-18T08:06:25.974Z,1.83
2023-02-18T08:09:13.993Z,1.70
2023-02-18T08:12:01.728Z,1.43
2023-02-18T08:14:49.142Z,1.53
2023-02-18T08:17:36.521Z,1.50
2023-02-18T08:20:24.107Z,1.23
2023-02-18T08:23:11.685Z,1.70
2023-02-18T08:25:59.039Z,1.60
2023-02-18T08:28:47.146Z,1.70
2023-02-18T08:31:35.015Z,1.57
2023-02-18T08:34:22.650Z,2.03
2023-02-18T08:37:10.139Z,1.90
2023-02-18T08:39:57.517Z,1.70
2023-02-18T08:42:44.853Z,1.60
2023-02-18T08:45:33.555Z,1.70
2023-02-18T08:48:23.984Z,2.20
2023-02-18T08:51:22.343Z,3.73
2023-02-18T08:54:09.707Z,3.00
2023-02-18T08:56:57.809Z,1.80
2023-02-18T08:59:45.173Z,1.63
2023-02-18T09:02:32.940Z,2.00
2023-02-18T09:05:20.432Z,2.10
2023-02-18T09:08:07.928Z,1.90
2023-02-18T09:10:56.585Z,1.57
2023-02-18T09:13:43.941Z,2.20
2023-02-18T09:16:31.472Z,1.80
2023-02-18T09:19:19.065Z,2.40
2023-02-18T09:22:06.504Z,1.63
2023-02-18T09:24:53.886Z,2.20
2023-02-18T09:27:41.257Z,2.77
2023-02-18T09:30:28.764Z,2.40
2023-02-18T09:33:16.587Z,3.47
2023-02-18T09:36:04.144Z,3.47
2023-02-18T09:38:51.953Z,3.05
2023-02-18T09:41:44.493Z,3.70
2023-02-18T09:44:58.249Z,3.80
2023-02-18T09:47:46.082Z,3.27
2023-02-18T09:50:34.346Z,4.30
2023-02-18T09:53:23.145Z,2.57
2023-02-18T09:56:12.692Z,2.27
2023-02-18T09:59:02.532Z,3.65
2023-02-18T10:01:52.179Z,3.13
2023-02-18T10:04:45.649Z,3.33
2023-02-18T10:07:33.506Z,2.57
2023-02-18T10:10:41.153Z,3.70
2023-02-18T10:13:33.101Z,3.50
2023-02-18T10:16:21.926Z,4.10
2023-02-18T10:19:15.396Z,3.53
2023-02-18T10:22:04.434Z,3.47
2023-02-18T10:24:56.093Z,3.73
2023-02-18T10:27:43.469Z,3.17
2023-02-18T10:30:36.577Z,4.03
2023-02-18T10:33:23.959Z,3.27
2023-02-18T10:36:28.891Z,3.70
2023-02-18T10:39:33.018Z,2.40
2023-02-18T10:42:58.977Z,2.50
2023-02-18T10:46:15.671Z,2.30
2023-02-18T10:49:03.223Z,2.37
2023-02-18T10:51:52.348Z,2.73
2023-02-18T10:54:58.167Z,3.43
2023-02-18T10:57:52.429Z,3.90
2023-02-18T11:00:40.679Z,4.80
2023-02-18T11:03:39.547Z,5.70
2023-02-18T11:06:34.722Z,5.60
2023-02-18T11:09:28.041Z,6.43
2023-02-18T11:12:26.758Z,5.43
2023-02-18T11:15:17.705Z,5.67
2023-02-18T11:18:29.176Z,8.07
2023-02-18T11:21:21.412Z,7.23
2023-02-18T11:24:16.506Z,6.43
2023-02-18T11:27:08.840Z,6.57
2023-02-18T11:30:16.732Z,5.63
2023-02-18T11:33:07.870Z,5.30
2023-02-18T11:35:56.928Z,5.90
2023-02-18T11:38:58.281Z,6.37
2023-02-18T11:41:50.265Z,4.77
2023-02-18T11:44:42.441Z,5.13
2023-02-18T11:47:37.331Z,4.50
2023-02-18T11:50:24.809Z,4.20
2023-02-18T11:53:32.445Z,4.10
2023-02-18T11:56:20.559Z,4.60
2023-02-18T11:59:11.029Z,3.50
2023-02-18T12:02:18.698Z,4.33
2023-02-18T12:05:12.038Z,4.53
2023-02-18T12:08:02.206Z,4.37
2023-02-18T12:10:54.057Z,3.30
2023-02-18T12:13:51.120Z,3.03
2023-02-18T12:16:57.459Z,3.37
2023-02-18T12:20:04.071Z,3.27
2023-02-18T12:23:14.459Z,3.47
2023-02-18T12:26:20.522Z,3.17
2023-02-18T12:29:18.314Z,3.37
2023-02-18T12:32:13.466Z,3.37
2023-02-18T12:35:19.717Z,3.30
2023-02-18T12:38:10.182Z,3.77
2023-02-18T12:41:26.874Z,3.70
2023-02-18T12:44:32.783Z,2.87
2023-02-18T12:47:38.371Z,3.17
2023-02-18T12:50:39.334Z,2.60
2023-02-18T12:53:29.772Z,2.83
2023-02-18T12:56:32.173Z,3.40
2023-02-18T12:59:19.485Z,3.10
2023-02-18T13:02:09.626Z,2.70
2023-02-18T13:05:09.117Z,2.53
2023-02-18T13:07:56.449Z,2.60
2023-02-18T13:10:46.563Z,2.53
2023-02-18T13:13:35.434Z,2.07
2023-02-18T13:16:23.996Z,1.83
2023-02-18T13:19:14.402Z,1.50
2023-02-18T13:22:04.332Z,1.77
2023-02-18T13:24:52.739Z,1.60
2023-02-18T13:27:49.226Z,1.70
2023-02-18T13:30:43.871Z,1.50
2023-02-18T13:33:34.363Z,1.70
2023-02-18T13:36:33.166Z,1.87
2023-02-18T13:39:22.196Z,1.50
2023-02-18T13:42:23.105Z,1.20
2023-02-18T13:45:24.407Z,0.67
2023-02-18T13:48:26.953Z,0.70
2023-02-18T13:51:34.565Z,0.70
2023-02-18T13:54:25.236Z,0.77
2023-02-18T13:57:22.636Z,0.60
2023-02-18T14:00:20.392Z,0.80
2023-02-18T14:03:22.240Z,0.77
2023-02-18T14:06:23.316Z,0.60
2023-02-18T14:09:13.882Z,0.97
2023-02-18T14:12:19.871Z,0.87
2023-02-18T14:15:30.591Z,0.80
2023-02-18T14:18:25.675Z,0.80
2023-02-18T14:21:12.992Z,0.70
2023-02-18T14:24:01.892Z,0.93
2023-02-18T14:26:49.729Z,0.80
2023-02-18T14:29:37.206Z,0.93
2023-02-18T14:32:25.691Z,0.30
2023-02-18T14:35:32.076Z,0.60
2023-02-18T14:38:24.813Z,0.40
2023-02-18T14:41:30.952Z,0.67
2023-02-18T14:44:37.248Z,0.50
2023-02-18T14:47:24.600Z,0.60
2023-02-18T14:50:13.788Z,0.87
2023-02-18T14:53:04.282Z,0.67
2023-02-18T14:55:54.886Z,0.60
2023-02-18T14:58:45.584Z,1.30
2023-02-18T15:01:34.111Z,0.97
2023-02-18T15:04:21.479Z,1.30
2023-02-18T15:07:12.328Z,1.00
2023-02-18T15:10:00.659Z,1.20
2023-02-18T15:12:48.042Z,1.17
2023-02-18T15:15:38.674Z,1.23
2023-02-18T15:18:48.695Z,1.13
2023-02-18T15:21:39.307Z,1.10
2023-02-18T15:24:37.483Z,1.30
2023-02-18T15:27:32.392Z,1.10
2023-02-18T15:30:19.833Z,1.40
2023-02-18T15:33:13.062Z,1.23
2023-02-18T15:36:04.647Z,1.20
2023-02-18T15:38:52.011Z,1.00
2023-02-18T15:41:40.100Z,1.30
2023-02-18T15:44:28.699Z,1.30
2023-02-18T15:47:17.485Z,1.50
2023-02-18T15:50:05.171Z,1.50
2023-02-18T15:52:53.970Z,1.80
2023-02-18T15:55:46.650Z,1.30
2023-02-18T15:58:34.694Z,1.70
2023-02-18T16:01:29.612Z,2.50
2023-02-18T16:04:17.208Z,2.73
2023-02-18T16:07:23.245Z,1.50
2023-02-18T16:10:16.457Z,1.40
2023-02-18T16:13:04.751Z,1.60
2023-02-18T16:15:52.679Z,1.30
2023-02-18T16:18:40.914Z,1.40
2023-02-18T16:21:39.929Z,1.57
2023-02-18T16:24:33.424Z,1.50
2023-02-18T16:27:20.835Z,1.88
2023-02-18T16:30:17.419Z,1.73
2023-02-18T16:33:04.820Z,2.40
2023-02-18T16:35:52.197Z,1.80
2023-02-18T16:38:39.557Z,1.83
2023-02-18T16:41:26.909Z,1.87
2023-02-18T16:44:14.984Z,1.95
2023-02-18T16:47:02.486Z,2.40
2023-02-18T16:49:51.820Z,2.40
2023-02-18T16:52:39.230Z,2.90
2023-02-18T16:55:28.371Z,2.77
2023-02-18T16:58:15.776Z,2.60
2023-02-18T17:01:03.513Z,2.43
2023-02-18T17:03:51.466Z,2.43
2023-02-18T17:06:38.928Z,2.50
2023-02-18T17:09:27.421Z,2.37
2023-02-18T17:12:14.918Z,2.40
2023-02-18T17:15:02.287Z,2.60
2023-02-18T17:17:49.890Z,2.73
2023-02-18T17:20:37.706Z,2.83
2023-02-18T17:23:25.381Z,2.83
2023-02-18T17:26:16.097Z,3.10
2023-02-18T17:29:05.396Z,3.40
2023-02-18T17:31:56.751Z,3.40
2023-02-18T17:34:44.195Z,4.13
2023-02-18T17:37:31.630Z,4.73
2023-02-18T17:40:23.202Z,4.43
2023-02-18T17:43:12.813Z,4.33
2023-02-18T17:46:00.286Z,5.07
2023-02-18T17:48:47.907Z,5.70
2023-02-18T17:51:36.812Z,7.20
2023-02-18T17:54:25.731Z,7.10
2023-02-18T17:57:14.574Z,6.87
2023-02-18T18:00:01.916Z,6.63
2023-02-18T18:02:49.481Z,6.67
2023-02-18T18:05:38.409Z,5.97
2023-02-18T18:08:25.747Z,9.15
2023-02-18T18:11:14.907Z,6.47
2023-02-18T18:14:02.330Z,6.53
2023-02-18T18:16:49.703Z,6.07
2023-02-18T18:19:38.054Z,6.27
2023-02-18T18:22:25.430Z,5.63
2023-02-18T18:25:23.484Z,5.40
2023-02-18T18:28:11.125Z,5.53
2023-02-18T18:30:59.117Z,4.97
2023-02-18T18:33:51.301Z,4.83
2023-02-18T18:36:38.702Z,4.70
2023-02-18T18:39:26.157Z,4.87
2023-02-18T18:42:13.503Z,4.57
2023-02-18T18:45:00.876Z,4.50
2023-02-18T18:47:48.735Z,4.60
2023-02-18T18:50:39.235Z,4.57
2023-02-18T18:53:28.268Z,4.50
2023-02-18T18:56:15.696Z,4.97
2023-02-18T18:59:04.012Z,4.73
2023-02-18T19:01:52.316Z,4.33
2023-02-18T19:04:39.741Z,4.80
2023-02-18T19:07:27.136Z,5.10
2023-02-18T19:10:14.601Z,4.80
2023-02-18T19:13:06.533Z,5.80
2023-02-18T19:16:01.866Z,5.77
2023-02-18T19:18:49.537Z,4.83
2023-02-18T19:21:37.181Z,5.37
2023-02-18T19:24:24.523Z,5.60
2023-02-18T19:27:14.182Z,6.13
2023-02-18T19:30:01.834Z,5.43
2023-02-18T19:32:49.650Z,5.77
2023-02-18T19:35:39.180Z,5.77
2023-02-18T19:38:26.644Z,6.07
2023-02-18T19:41:15.324Z,6.67
2023-02-18T19:44:02.767Z,6.90
2023-02-18T19:46:50.100Z,8.63
2023-02-18T19:49:37.509Z,6.60
2023-02-18T19:52:24.883Z,8.20
2023-02-18T19:55:12.261Z,7.57
2023-02-18T19:57:59.679Z,7.93
2023-02-18T20:00:47.108Z,7.00
2023-02-18T20:03:34.438Z,7.70
2023-02-18T20:06:22.105Z,7.13
2023-02-18T20:09:09.483Z,6.90
2023-02-18T20:11:56.905Z,7.50
2023-02-18T20:14:44.399Z,6.80
2023-02-18T20:17:31.731Z,7.97
2023-02-18T20:20:19.946Z,7.13
2023-02-18T20:23:07.277Z,7.27
2023-02-18T20:25:54.664Z,7.30
2023-02-18T20:28:42.320Z,7.00
2023-02-18T20:31:29.764Z,8.10
2023-02-18T20:34:17.675Z,7.30
2023-02-18T20:37:05.074Z,7.53
2023-02-18T20:39:52.560Z,7.20
2023-02-18T20:42:41.875Z,8.07
2023-02-18T20:45:29.251Z,7.47
2023-02-18T20:48:16.626Z,8.10
2023-02-18T20:51:08.202Z,7.83
2023-02-18T20:53:55.673Z,7.97
2023-02-18T20:56:44.063Z,7.20
2023-02-18T20:59:33.269Z,6.77
2023-02-18T21:02:20.661Z,7.27
2023-02-18T21:05:08.225Z,7.97
2023-02-18T21:07:55.567Z,7.03
2023-02-18T21:10:42.991Z,6.30
2023-02-18T21:13:30.387Z,6.13
2023-02-18T21:16:18.701Z,6.30
2023-02-18T21:19:07.739Z,6.07
2023-02-18T21:21:55.184Z,6.47
2023-02-18T21:24:42.956Z,5.97
2023-02-18T21:27:33.988Z,6.50
2023-02-18T21:30:21.388Z,6.50
2023-02-18T21:33:09.093Z,6.50
2023-02-18T21:35:56.510Z,7.10
2023-02-18T21:38:44.678Z,6.07
2023-02-18T21:41:32.073Z,6.13
2023-02-18T21:44:21.465Z,6.60
2023-02-18T21:47:10.588Z,6.03
2023-02-18T21:49:57.969Z,6.73
2023-02-18T21:52:45.337Z,6.57
2023-02-18T21:55:32.721Z,6.50
2023-02-18T21:58:20.572Z,5.20
2023-02-18T22:01:08.532Z,7.33
2023-02-18T22:03:56.389Z,5.13
2023-02-18T22:06:43.783Z,5.20
2023-02-18T22:09:31.182Z,4.83
2023-02-18T22:12:18.554Z,5.53
2023-02-18T22:15:08.035Z,5.63
2023-02-18T22:17:55.438Z,5.63
2023-02-18T22:20:42.762Z,5.23
2023-02-18T22:23:31.959Z,5.70
2023-02-18T22:26:19.438Z,6.10
2023-02-18T22:29:06.864Z,5.83
2023-02-18T22:31:54.427Z,5.60
2023-02-18T22:34:41.840Z,5.73
2023-02-18T22:37:29.260Z,6.37
2023-02-18T22:40:16.647Z,6.23
2023-02-18T22:43:04.018Z,6.40
2023-02-18T22:45:51.465Z,5.60
2023-02-18T22:48:39.144Z,6.13
2023-02-18T22:51:27.950Z,6.70
2023-02-18T22:54:16.167Z,5.40
2023-02-18T22:57:03.561Z,6.07
2023-02-18T22:59:50.949Z,6.13
2023-02-18T23:02:38.326Z,5.27
2023-02-18T23:05:25.759Z,5.60
2023-02-18T23:08:13.090Z,5.13
2023-02-18T23:11:02.184Z,5.10
2023-02-18T23:14:09.865Z,5.17
2023-02-18T23:17:17.802Z,5.50
2023-02-18T23:20:05.580Z,5.87
2023-02-18T23:22:52.925Z,5.90
2023-02-18T23:25:40.313Z,5.80
2023-02-18T23:28:28.569Z,5.03
2023-02-18T23:31:16.097Z,5.77
2023-02-18T23:34:04.388Z,5.03
2023-02-18T23:36:51.745Z,5.33
2023-02-18T23:39:39.922Z,5.43
2023-02-18T23:42:27.352Z,5.40
2023-02-18T23:45:14.753Z,5.23
2023-02-18T23:48:02.156Z,5.03
2023-02-18T23:50:49.508Z,5.83
2023-02-18T23:53:37.792Z,5.10
2023-02-18T23:56:26.284Z,5.23
2023-02-18T23:59:13.901Z,4.60
